sensor_id;sensor_type;location;lat;lon;timestamp;P1;durP1;ratioP1;P2;durP2;ratioP2
5678;SDS011;2862;52.560;13.566;2024-02-26T00:03:13;20.20;;;4.40;;
5678;SDS011;2862;52.560;13.566;2024-02-26T00:13:17;19.80;;;3.57;;
5678;SDS011;2862;52.560;13.566;2024-02-26T00:23:22;13.93;;;2.37;;
5678;SDS011;2862;52.560;13.566;2024-02-26T00:33:27;16.40;;;2.80;;
5678;SDS011;2862;52.560;13.566;2024-02-26T00:43:31;16.00;;;2.43;;
5678;SDS011;2862;52.560;13.566;2024-02-26T00:53:35;16.87;;;2.10;;
5678;SDS011;2862;52.560;13.566;2024-02-26T01:03:38;14.97;;;1.43;;
5678;SDS011;2862;52.560;13.566;2024-02-26T01:13:42;14.00;;;2.43;;
5678;SDS011;2862;52.560;13.566;2024-02-26T01:23:45;13.07;;;2.30;;
5678;SDS011;2862;52.560;13.566;2024-02-26T01:33:50;15.33;;;1.93;;
5678;SDS011;2862;52.560;13.566;2024-02-26T01:43:53;17.20;;;1.93;;
5678;SDS011;2862;52.560;13.566;2024-02-26T01:53:57;13.90;;;2.00;;
5678;SDS011;2862;52.560;13.566;2024-02-26T02:04:00;15.70;;;2.70;;
5678;SDS011;2862;52.560;13.566;2024-02-26T02:14:05;16.83;;;2.77;;
5678;SDS011;2862;52.560;13.566;2024-02-26T02:24:10;13.70;;;2.17;;
5678;SDS011;2862;52.560;13.566;2024-02-26T02:34:13;16.73;;;1.90;;
5678;SDS011;2862;52.560;13.566;2024-02-26T02:44:18;13.93;;;1.70;;
5678;SDS011;2862;52.560;13.566;2024-02-26T02:54:21;16.47;;;2.67;;
5678;SDS011;2862;52.560;13.566;2024-02-26T03:04:25;15.53;;;3.40;;
5678;SDS011;2862;52.560;13.566;2024-02-26T03:14:28;16.33;;;3.80;;
5678;SDS011;2862;52.560;13.566;2024-02-26T03:24:32;16.83;;;4.00;;
5678;SDS011;2862;52.560;13.566;2024-02-26T03:34:36;17.67;;;4.17;;
5678;SDS011;2862;52.560;13.566;2024-02-26T03:44:41;20.07;;;5.60;;
5678;SDS011;2862;52.560;13.566;2024-02-26T03:54:44;27.23;;;6.17;;
5678;SDS011;2862;52.560;13.566;2024-02-26T04:04:49;25.27;;;8.20;;
5678;SDS011;2862;52.560;13.566;2024-02-26T04:14:52;21.87;;;6.07;;
5678;SDS011;2862;52.560;13.566;2024-02-26T04:24:57;25.13;;;8.37;;
5678;SDS011;2862;52.560;13.566;2024-02-26T04:34:59;22.33;;;7.40;;
5678;SDS011;2862;52.560;13.566;2024-02-26T04:45:04;24.20;;;8.30;;
5678;SDS011;2862;52.560;13.566;2024-02-26T04:55:08;30.53;;;11.17;;
5678;SDS011;2862;52.560;13.566;2024-02-26T05:05:12;28.00;;;9.43;;
5678;SDS011;2862;52.560;13.566;2024-02-26T05:15:15;28.13;;;9.50;;
5678;SDS011;2862;52.560;13.566;2024-02-26T05:25:21;26.90;;;10.30;;
5678;SDS011;2862;52.560;13.566;2024-02-26T05:35:24;27.30;;;10.27;;
5678;SDS011;2862;52.560;13.566;2024-02-26T05:45:29;33.83;;;11.57;;
5678;SDS011;2862;52.560;13.566;2024-02-26T05:55:32;32.57;;;12.70;;
5678;SDS011;2862;52.560;13.566;2024-02-26T06:05:36;32.47;;;12.60;;
5678;SDS011;2862;52.560;13.566;2024-02-26T06:15:39;39.33;;;13.53;;
5678;SDS011;2862;52.560;13.566;2024-02-26T06:25:43;32.13;;;13.20;;
5678;SDS011;2862;52.560;13.566;2024-02-26T06:35:46;34.20;;;12.80;;
5678;SDS011;2862;52.560;13.566;2024-02-26T06:45:51;30.93;;;11.70;;
5678;SDS011;2862;52.560;13.566;2024-02-26T06:55:54;29.73;;;13.03;;
5678;SDS011;2862;52.560;13.566;2024-02-26T07:05:58;30.50;;;12.97;;
5678;SDS011;2862;52.560;13.566;2024-02-26T07:16:01;28.40;;;11.67;;
5678;SDS011;2862;52.560;13.566;2024-02-26T07:26:05;31.00;;;12.63;;
5678;SDS011;2862;52.560;13.566;2024-02-26T07:36:10;27.73;;;11.73;;
5678;SDS011;2862;52.560;13.566;2024-02-26T07:46:14;30.20;;;12.67;;
5678;SDS011;2862;52.560;13.566;2024-02-26T07:56:17;30.37;;;11.57;;
5678;SDS011;2862;52.560;13.566;2024-02-26T08:06:21;31.47;;;13.10;;
5678;SDS011;2862;52.560;13.566;2024-02-26T08:16:25;31.20;;;13.10;;
5678;SDS011;2862;52.560;13.566;2024-02-26T08:26:30;33.27;;;14.50;;
5678;SDS011;2862;52.560;13.566;2024-02-26T08:36:33;40.17;;;16.20;;
5678;SDS011;2862;52.560;13.566;2024-02-26T08:46:37;30.53;;;13.67;;
5678;SDS011;2862;52.560;13.566;2024-02-26T08:56:40;40.77;;;15.10;;
5678;SDS011;2862;52.560;13.566;2024-02-26T09:06:44;38.50;;;16.80;;
5678;SDS011;2862;52.560;13.566;2024-02-26T09:16:47;33.80;;;16.03;;
5678;SDS011;2862;52.560;13.566;2024-02-26T09:26:52;38.87;;;16.57;;
5678;SDS011;2862;52.560;13.566;2024-02-26T09:36:55;38.43;;;14.90;;
5678;SDS011;2862;52.560;13.566;2024-02-26T09:47:01;36.10;;;15.03;;
5678;SDS011;2862;52.560;13.566;2024-02-26T09:57:05;32.93;;;15.47;;
5678;SDS011;2862;52.560;13.566;2024-02-26T10:07:17;29.87;;;12.30;;
5678;SDS011;2862;52.560;13.566;2024-02-26T10:17:22;33.20;;;12.53;;
5678;SDS011;2862;52.560;13.566;2024-02-26T10:27:27;28.87;;;11.20;;
5678;SDS011;2862;52.560;13.566;2024-02-26T10:37:30;32.90;;;11.60;;
5678;SDS011;2862;52.560;13.566;2024-02-26T10:47:35;30.10;;;11.10;;
5678;SDS011;2862;52.560;13.566;2024-02-26T10:57:39;30.60;;;9.90;;
5678;SDS011;2862;52.560;13.566;2024-02-26T11:07:47;27.40;;;9.37;;
5678;SDS011;2862;52.560;13.566;2024-02-26T11:17:52;35.70;;;12.87;;
5678;SDS011;2862;52.560;13.566;2024-02-26T11:28:00;30.97;;;13.33;;
5678;SDS011;2862;52.560;13.566;2024-02-26T11:38:07;41.40;;;15.70;;
5678;SDS011;2862;52.560;13.566;2024-02-26T11:48:12;39.23;;;15.50;;
5678;SDS011;2862;52.560;13.566;2024-02-26T11:58:15;34.60;;;15.20;;
5678;SDS011;2862;52.560;13.566;2024-02-26T12:08:20;34.17;;;15.77;;
5678;SDS011;2862;52.560;13.566;2024-02-26T12:18:24;31.07;;;12.13;;
5678;SDS011;2862;52.560;13.566;2024-02-26T12:28:31;33.63;;;14.93;;
5678;SDS011;2862;52.560;13.566;2024-02-26T12:38:34;38.23;;;12.27;;
5678;SDS011;2862;52.560;13.566;2024-02-26T12:48:40;32.87;;;10.97;;
5678;SDS011;2862;52.560;13.566;2024-02-26T12:58:45;28.23;;;9.37;;
5678;SDS011;2862;52.560;13.566;2024-02-26T13:08:55;28.73;;;9.40;;
5678;SDS011;2862;52.560;13.566;2024-02-26T13:19:08;24.23;;;7.10;;
5678;SDS011;2862;52.560;13.566;2024-02-26T13:29:17;22.57;;;6.10;;
5678;SDS011;2862;52.560;13.566;2024-02-26T13:39:21;19.93;;;5.10;;
5678;SDS011;2862;52.560;13.566;2024-02-26T13:49:26;21.93;;;6.30;;
5678;SDS011;2862;52.560;13.566;2024-02-26T13:59:29;22.13;;;5.87;;
5678;SDS011;2862;52.560;13.566;2024-02-26T14:09:35;23.57;;;7.07;;
5678;SDS011;2862;52.560;13.566;2024-02-26T14:19:40;22.83;;;6.50;;
5678;SDS011;2862;52.560;13.566;2024-02-26T14:29:47;22.10;;;6.70;;
5678;SDS011;2862;52.560;13.566;2024-02-26T14:39:50;21.60;;;6.00;;
5678;SDS011;2862;52.560;13.566;2024-02-26T14:49:55;26.80;;;9.73;;
5678;SDS011;2862;52.560;13.566;2024-02-26T14:59:58;25.20;;;7.60;;
5678;SDS011;2862;52.560;13.566;2024-02-26T15:10:02;27.80;;;7.63;;
5678;SDS011;2862;52.560;13.566;2024-02-26T15:20:06;29.60;;;7.90;;
5678;SDS011;2862;52.560;13.566;2024-02-26T15:30:12;28.37;;;9.10;;
5678;SDS011;2862;52.560;13.566;2024-02-26T15:40:15;27.77;;;10.33;;
5678;SDS011;2862;52.560;13.566;2024-02-26T15:50:19;27.30;;;9.13;;
5678;SDS011;2862;52.560;13.566;2024-02-26T16:00:22;30.37;;;10.30;;
5678;SDS011;2862;52.560;13.566;2024-02-26T16:10:27;30.60;;;11.00;;
5678;SDS011;2862;52.560;13.566;2024-02-26T16:20:31;33.10;;;12.50;;
5678;SDS011;2862;52.560;13.566;2024-02-26T16:30:36;30.00;;;11.87;;
5678;SDS011;2862;52.560;13.566;2024-02-26T16:40:40;39.13;;;14.10;;
5678;SDS011;2862;52.560;13.566;2024-02-26T16:50:44;36.50;;;13.80;;
5678;SDS011;2862;52.560;13.566;2024-02-26T17:00:47;29.53;;;11.53;;
5678;SDS011;2862;52.560;13.566;2024-02-26T17:10:51;33.77;;;11.97;;
5678;SDS011;2862;52.560;13.566;2024-02-26T17:20:54;30.57;;;11.27;;
5678;SDS011;2862;52.560;13.566;2024-02-26T17:31:00;40.10;;;15.20;;
5678;SDS011;2862;52.560;13.566;2024-02-26T17:41:03;46.10;;;16.53;;
5678;SDS011;2862;52.560;13.566;2024-02-26T17:51:08;46.10;;;15.00;;
5678;SDS011;2862;52.560;13.566;2024-02-26T18:01:13;38.90;;;15.03;;
5678;SDS011;2862;52.560;13.566;2024-02-26T18:11:17;39.20;;;15.50;;
5678;SDS011;2862;52.560;13.566;2024-02-26T18:21:20;35.67;;;13.30;;
5678;SDS011;2862;52.560;13.566;2024-02-26T18:31:25;31.53;;;13.37;;
5678;SDS011;2862;52.560;13.566;2024-02-26T18:41:27;32.40;;;13.83;;
5678;SDS011;2862;52.560;13.566;2024-02-26T18:51:31;28.70;;;11.10;;
5678;SDS011;2862;52.560;13.566;2024-02-26T19:01:34;28.90;;;10.30;;
5678;SDS011;2862;52.560;13.566;2024-02-26T19:11:40;27.23;;;10.03;;
5678;SDS011;2862;52.560;13.566;2024-02-26T19:21:47;28.53;;;9.43;;
5678;SDS011;2862;52.560;13.566;2024-02-26T19:31:51;33.07;;;9.87;;
5678;SDS011;2862;52.560;13.566;2024-02-26T19:41:54;27.30;;;9.00;;
5678;SDS011;2862;52.560;13.566;2024-02-26T19:51:59;30.37;;;8.87;;
5678;SDS011;2862;52.560;13.566;2024-02-26T20:02:08;28.63;;;8.40;;
5678;SDS011;2862;52.560;13.566;2024-02-26T20:12:27;25.00;;;7.80;;
5678;SDS011;2862;52.560;13.566;2024-02-26T20:22:30;23.10;;;6.70;;
5678;SDS011;2862;52.560;13.566;2024-02-26T20:32:35;26.70;;;8.27;;
5678;SDS011;2862;52.560;13.566;2024-02-26T20:42:38;28.40;;;8.07;;
5678;SDS011;2862;52.560;13.566;2024-02-26T20:52:43;25.37;;;8.23;;
5678;SDS011;2862;52.560;13.566;2024-02-26T21:02:46;27.50;;;8.70;;
5678;SDS011;2862;52.560;13.566;2024-02-26T21:12:50;27.80;;;8.30;;
5678;SDS011;2862;52.560;13.566;2024-02-26T21:22:53;24.80;;;8.47;;
5678;SDS011;2862;52.560;13.566;2024-02-26T21:32:57;31.60;;;9.77;;
5678;SDS011;2862;52.560;13.566;2024-02-26T21:43:01;26.70;;;8.40;;
5678;SDS011;2862;52.560;13.566;2024-02-26T21:53:07;27.90;;;8.50;;
5678;SDS011;2862;52.560;13.566;2024-02-26T22:03:10;25.13;;;8.17;;
5678;SDS011;2862;52.560;13.566;2024-02-26T22:13:15;26.80;;;7.97;;
5678;SDS011;2862;52.560;13.566;2024-02-26T22:23:21;25.63;;;7.63;;
5678;SDS011;2862;52.560;13.566;2024-02-26T22:33:26;29.23;;;9.80;;
5678;SDS011;2862;52.560;13.566;2024-02-26T22:43:29;27.93;;;7.40;;
5678;SDS011;2862;52.560;13.566;2024-02-26T22:53:34;26.23;;;6.57;;
5678;SDS011;2862;52.560;13.566;2024-02-26T23:03:37;23.93;;;7.33;;
5678;SDS011;2862;52.560;13.566;2024-02-26T23:13:41;21.30;;;6.93;;
5678;SDS011;2862;52.560;13.566;2024-02-26T23:23:48;26.20;;;6.30;;
5678;SDS011;2862;52.560;13.566;2024-02-26T23:33:54;22.30;;;7.03;;
5678;SDS011;2862;52.560;13.566;2024-02-26T23:43:59;22.70;;;6.40;;
5678;SDS011;2862;52.560;13.566;2024-02-26T23:54:05;20.87;;;6.40;;
